createdAt,value
2019-02-15T00:00:12.566Z,57.07
2019-02-15T00:02:41.177Z,64.43
2019-02-15T00:05:09.798Z,61.80
2019-02-15T00:07:38.364Z,59.87
2019-02-15T00:10:07.379Z,64.37
2019-02-15T00:12:35.990Z,61.10
2019-02-15T00:15:05.493Z,58.47
2019-02-15T00:17:51.797Z,64.20
2019-02-15T00:20:21.933Z,64.67
2019-02-15T00:22:50.644Z,65.03
2019-02-15T00:25:19.113Z,69.80
2019-02-15T00:27:47.685Z,74.20
2019-02-15T00:30:16.366Z,63.83
2019-02-15T00:32:44.834Z,68.47
2019-02-15T00:35:13.477Z,71.70
2019-02-15T00:37:42.029Z,71.73
2019-02-15T00:40:10.633Z,71.20
2019-02-15T00:42:39.128Z,72.30
2019-02-15T00:45:09.381Z,75.03
2019-02-15T00:47:42.537Z,74.80
2019-02-15T00:50:15.233Z,80.83
2019-02-15T00:52:45.351Z,78.00
2019-02-15T00:55:18.264Z,78.83
2019-02-15T00:57:57.397Z,78.00
2019-02-15T01:00:39.489Z,71.20
2019-02-15T01:03:09.665Z,76.40
2019-02-15T01:05:39.843Z,77.77
2019-02-15T01:08:10.021Z,77.03
2019-02-15T01:10:40.258Z,75.23
2019-02-15T01:13:10.438Z,79.10
2019-02-15T01:15:39.050Z,79.90
2019-02-15T01:18:07.705Z,72.17
2019-02-15T01:20:36.241Z,74.73
2019-02-15T01:23:04.787Z,79.57
2019-02-15T01:25:34.984Z,88.53
2019-02-15T01:28:05.088Z,93.83
2019-02-15T01:30:38.294Z,97.00
2019-02-15T01:33:09.960Z,92.60
2019-02-15T01:35:48.897Z,105.07
2019-02-15T01:38:20.138Z,112.03
2019-02-15T01:40:50.325Z,109.77
2019-02-15T01:43:26.529Z,99.27
2019-02-15T01:46:02.855Z,111.80
2019-02-15T01:48:31.442Z,103.47
2019-02-15T01:50:59.989Z,106.53
2019-02-15T01:53:28.533Z,103.93
2019-02-15T01:55:57.034Z,96.30
2019-02-15T01:58:25.580Z,100.40
2019-02-15T02:00:54.121Z,113.77
2019-02-15T02:03:22.701Z,102.67
2019-02-15T02:05:51.249Z,107.23
2019-02-15T02:08:21.669Z,103.70
2019-02-15T02:10:50.365Z,102.60
2019-02-15T02:13:18.833Z,99.13
2019-02-15T02:15:47.377Z,92.90
2019-02-15T02:18:15.957Z,101.73
2019-02-15T02:20:44.643Z,101.40
2019-02-15T02:23:13.186Z,92.00
2019-02-15T02:25:41.861Z,97.97
2019-02-15T02:28:10.405Z,109.50
2019-02-15T02:30:39.027Z,109.70
2019-02-15T02:33:07.603Z,95.57
2019-02-15T02:35:36.221Z,106.27
2019-02-15T02:38:04.911Z,103.00
2019-02-15T02:40:33.497Z,97.50
2019-02-15T02:43:02.033Z,84.60
2019-02-15T02:45:30.574Z,91.53
2019-02-15T02:47:59.226Z,100.60
2019-02-15T02:50:27.773Z,97.33
2019-02-15T02:52:56.321Z,104.17
2019-02-15T02:55:24.909Z,102.20
2019-02-15T02:57:53.380Z,106.47
2019-02-15T03:00:21.868Z,126.00
2019-02-15T03:02:50.585Z,110.60
2019-02-15T03:05:19.286Z,117.83
2019-02-15T03:07:47.814Z,112.67
2019-02-15T03:10:18.325Z,116.70
2019-02-15T03:12:46.874Z,126.43
2019-02-15T03:15:15.491Z,128.50
2019-02-15T03:17:44.061Z,112.83
2019-02-15T03:20:12.606Z,106.17
2019-02-15T03:22:41.217Z,117.07
2019-02-15T03:25:09.861Z,109.43
2019-02-15T03:27:38.335Z,104.00
2019-02-15T03:30:09.118Z,109.90
2019-02-15T03:32:37.702Z,117.67
2019-02-15T03:35:08.789Z,95.43
2019-02-15T03:37:41.783Z,100.47
2019-02-15T03:40:12.105Z,104.87
2019-02-15T03:42:40.569Z,96.70
2019-02-15T03:45:10.138Z,78.17
2019-02-15T03:47:38.808Z,81.70
2019-02-15T03:50:08.729Z,75.87
2019-02-15T03:52:37.298Z,88.07
2019-02-15T03:55:06.691Z,85.50
2019-02-15T03:57:35.376Z,87.87
2019-02-15T04:00:05.561Z,77.20
2019-02-15T04:02:34.269Z,80.47
2019-02-15T04:05:02.809Z,93.30
2019-02-15T04:07:31.340Z,84.73
2019-02-15T04:09:59.989Z,83.90
2019-02-15T04:12:28.633Z,82.23
2019-02-15T04:15:04.759Z,83.10
2019-02-15T04:17:33.346Z,106.90
2019-02-15T04:20:01.894Z,92.93
2019-02-15T04:22:30.505Z,96.97
2019-02-15T04:24:59.085Z,85.90
2019-02-15T04:27:27.712Z,91.60
2019-02-15T04:29:56.264Z,88.63
2019-02-15T04:32:24.901Z,90.23
2019-02-15T04:34:53.375Z,96.33
2019-02-15T04:37:21.948Z,93.13
2019-02-15T04:39:50.480Z,101.87
2019-02-15T04:42:18.962Z,115.03
2019-02-15T04:44:47.502Z,129.87
2019-02-15T04:47:16.014Z,154.63
2019-02-15T04:49:44.572Z,154.83
2019-02-15T04:52:13.123Z,134.77
2019-02-15T04:54:41.716Z,148.20
2019-02-15T04:57:10.261Z,134.43
2019-02-15T04:59:38.816Z,139.50
2019-02-15T05:02:07.385Z,142.70
2019-02-15T05:04:35.865Z,145.37
2019-02-15T05:07:04.549Z,128.93
2019-02-15T05:09:33.062Z,133.27
2019-02-15T05:12:01.542Z,136.07
2019-02-15T05:14:33.172Z,126.60
2019-02-15T05:17:01.753Z,145.13
2019-02-15T05:19:30.311Z,153.87
2019-02-15T05:21:58.935Z,135.83
2019-02-15T05:24:27.523Z,155.37
2019-02-15T05:26:56.144Z,143.63
2019-02-15T05:29:24.690Z,157.47
2019-02-15T05:31:53.186Z,158.87
2019-02-15T05:34:21.737Z,150.73
2019-02-15T05:36:50.284Z,153.53
2019-02-15T05:39:18.930Z,147.40
2019-02-15T05:41:47.478Z,158.53
2019-02-15T05:44:16.409Z,154.33
2019-02-15T05:46:45.135Z,152.87
2019-02-15T05:49:13.673Z,160.50
2019-02-15T05:51:42.152Z,143.03
2019-02-15T05:54:10.778Z,137.10
2019-02-15T05:56:39.315Z,139.47
2019-02-15T05:59:07.853Z,130.87
2019-02-15T06:01:36.542Z,132.30
2019-02-15T06:04:05.152Z,133.40
2019-02-15T06:06:33.701Z,138.23
2019-02-15T06:09:02.351Z,139.47
2019-02-15T06:11:30.894Z,139.47
2019-02-15T06:13:59.514Z,125.33
2019-02-15T06:16:28.166Z,170.60
2019-02-15T06:18:56.780Z,204.67
2019-02-15T06:21:25.323Z,182.57
2019-02-15T06:23:53.906Z,126.80
2019-02-15T06:26:22.452Z,127.67
2019-02-15T06:28:50.993Z,129.83
2019-02-15T06:31:19.560Z,134.63
2019-02-15T06:33:48.106Z,134.47
2019-02-15T06:36:16.722Z,131.23
2019-02-15T06:38:45.342Z,133.33
2019-02-15T06:41:13.824Z,130.37
2019-02-15T06:43:42.306Z,135.20
2019-02-15T06:46:10.881Z,132.80
2019-02-15T06:48:39.460Z,130.07
2019-02-15T06:51:08.057Z,123.37
2019-02-15T06:53:36.789Z,135.07
2019-02-15T06:56:05.321Z,121.43
2019-02-15T06:58:34.719Z,134.43
2019-02-15T07:01:16.834Z,121.90
2019-02-15T07:03:47.021Z,116.77
2019-02-15T07:06:15.634Z,114.67
2019-02-15T07:08:44.137Z,118.47
2019-02-15T07:11:12.690Z,113.23
2019-02-15T07:13:42.273Z,121.20
2019-02-15T07:16:10.769Z,109.70
2019-02-15T07:18:39.242Z,109.17
2019-02-15T07:21:07.712Z,113.33
2019-02-15T07:23:36.222Z,119.03
2019-02-15T07:26:04.764Z,118.63
2019-02-15T07:28:33.233Z,105.13
2019-02-15T07:31:01.742Z,104.37
2019-02-15T07:33:30.353Z,98.53
2019-02-15T07:35:58.966Z,102.57
2019-02-15T07:38:27.460Z,96.27
2019-02-15T07:40:55.948Z,100.03
2019-02-15T07:43:24.494Z,93.87
2019-02-15T07:45:53.078Z,94.73
2019-02-15T07:48:21.541Z,93.40
2019-02-15T07:50:50.153Z,88.37
2019-02-15T07:53:18.731Z,88.37
2019-02-15T07:55:47.273Z,80.33
2019-02-15T07:58:15.817Z,76.47
2019-02-15T08:00:44.337Z,83.07
2019-02-15T08:03:12.869Z,75.13
2019-02-15T08:05:41.413Z,74.67
2019-02-15T08:08:10.013Z,86.37
2019-02-15T08:10:39.510Z,77.00
2019-02-15T08:13:08.097Z,75.37
2019-02-15T08:15:36.771Z,73.27
2019-02-15T08:18:05.293Z,78.53
2019-02-15T08:20:33.836Z,94.80
2019-02-15T08:23:02.409Z,91.83
2019-02-15T08:25:31.013Z,90.87
2019-02-15T08:27:59.554Z,92.90
2019-02-15T08:30:28.132Z,107.33
2019-02-15T08:32:56.677Z,107.73
2019-02-15T08:35:25.229Z,98.57
2019-02-15T08:37:53.807Z,106.97
2019-02-15T08:40:22.353Z,116.17
2019-02-15T08:42:50.901Z,109.40
2019-02-15T08:45:19.401Z,108.60
2019-02-15T08:47:48.100Z,118.20
2019-02-15T08:50:16.616Z,124.67
2019-02-15T08:52:45.201Z,131.73
2019-02-15T08:55:13.743Z,126.87
2019-02-15T08:57:42.357Z,129.13
2019-02-15T09:00:12.880Z,128.07
2019-02-15T09:02:41.481Z,136.53
2019-02-15T09:05:12.159Z,142.50
2019-02-15T09:07:40.808Z,144.10
2019-02-15T09:10:13.357Z,145.87
2019-02-15T09:12:41.964Z,156.23
2019-02-15T09:15:13.553Z,151.53
2019-02-15T09:17:42.096Z,151.90
2019-02-15T09:20:11.815Z,148.33
2019-02-15T09:22:40.453Z,152.47
2019-02-15T09:25:10.663Z,148.97
2019-02-15T09:27:46.541Z,157.67
2019-02-15T09:30:15.358Z,150.00
2019-02-15T09:32:44.048Z,145.67
2019-02-15T09:35:12.777Z,139.10
2019-02-15T09:37:41.322Z,147.53
2019-02-15T09:40:10.542Z,148.63
2019-02-15T09:42:39.182Z,133.87
2019-02-15T09:45:10.869Z,115.00
2019-02-15T09:47:39.415Z,117.83
2019-02-15T09:50:12.013Z,108.20
2019-02-15T09:52:40.025Z,112.93
2019-02-15T09:55:08.715Z,109.10
2019-02-15T09:57:37.375Z,114.03
2019-02-15T10:00:08.460Z,111.47
2019-02-15T10:02:37.015Z,110.53
2019-02-15T10:05:07.025Z,98.33
2019-02-15T10:07:35.638Z,102.67
2019-02-15T10:10:06.122Z,107.63
2019-02-15T10:12:34.762Z,106.87
2019-02-15T10:15:03.649Z,109.60
2019-02-15T10:17:32.194Z,105.27
2019-02-15T10:20:00.706Z,107.53
2019-02-15T10:22:29.243Z,114.30
2019-02-15T10:24:57.786Z,110.97
2019-02-15T10:27:26.377Z,106.20
2019-02-15T10:29:54.914Z,118.00
2019-02-15T10:32:23.538Z,114.30
2019-02-15T10:34:52.107Z,110.23
2019-02-15T10:37:20.663Z,113.70
2019-02-15T10:39:49.190Z,108.50
2019-02-15T10:42:17.766Z,93.43
2019-02-15T10:44:46.377Z,92.23
2019-02-15T10:47:24.496Z,89.87
2019-02-15T10:49:45.153Z,97.33
2019-02-15T10:52:13.760Z,111.93
2019-02-15T10:54:42.398Z,112.50
2019-02-15T10:57:14.022Z,99.80
2019-02-15T10:59:42.494Z,111.43
2019-02-15T11:02:11.103Z,75.83
2019-02-15T11:04:41.104Z,90.60
2019-02-15T11:07:09.713Z,75.90
2019-02-15T11:09:38.517Z,65.63
2019-02-15T11:12:07.189Z,99.87
2019-02-15T11:14:35.659Z,107.87
2019-02-15T11:17:04.469Z,102.13
2019-02-15T11:19:33.041Z,80.93
2019-02-15T11:22:01.669Z,84.20
2019-02-15T11:24:30.221Z,93.03
2019-02-15T11:26:58.732Z,87.23
2019-02-15T11:29:27.255Z,104.63
2019-02-15T11:31:55.793Z,73.70
2019-02-15T11:34:24.369Z,83.63
2019-02-15T11:36:52.961Z,94.83
2019-02-15T11:39:22.993Z,82.57
2019-02-15T11:41:51.745Z,76.20
2019-02-15T11:44:20.293Z,89.47
2019-02-15T11:46:56.542Z,100.20
2019-02-15T11:49:19.093Z,90.90
2019-02-15T11:51:47.637Z,99.57
2019-02-15T11:54:23.284Z,103.13
2019-02-15T11:56:46.470Z,114.43
2019-02-15T11:59:15.022Z,106.77
2019-02-15T12:01:43.564Z,102.53
2019-02-15T12:04:12.144Z,98.33
2019-02-15T12:06:40.772Z,91.63
2019-02-15T12:09:09.309Z,89.83
2019-02-15T12:11:37.877Z,90.37
2019-02-15T12:14:06.429Z,95.07
2019-02-15T12:16:34.965Z,95.03
2019-02-15T12:19:03.477Z,96.10
2019-02-15T12:21:31.945Z,102.37
2019-02-15T12:24:00.419Z,110.47
2019-02-15T12:26:28.992Z,107.73
2019-02-15T12:28:57.601Z,107.93
2019-02-15T12:31:26.079Z,110.70
2019-02-15T12:33:54.649Z,126.43
2019-02-15T12:36:23.235Z,109.57
2019-02-15T12:38:51.778Z,109.40
2019-02-15T12:41:22.200Z,101.03
2019-02-15T12:43:50.774Z,111.53
2019-02-15T12:46:19.328Z,101.40
2019-02-15T12:48:48.045Z,99.60
2019-02-15T12:51:16.620Z,119.93
2019-02-15T12:53:45.168Z,114.70
2019-02-15T12:56:13.740Z,121.77
2019-02-15T12:58:42.291Z,115.10
2019-02-15T13:01:10.910Z,113.97
2019-02-15T13:03:39.418Z,123.90
2019-02-15T13:06:07.971Z,116.47
2019-02-15T13:08:36.522Z,132.47
2019-02-15T13:11:05.201Z,128.13
2019-02-15T13:13:33.670Z,132.30
2019-02-15T13:16:02.150Z,128.37
2019-02-15T13:18:30.739Z,134.93
2019-02-15T13:20:59.359Z,121.53
2019-02-15T13:23:27.982Z,118.87
2019-02-15T13:25:56.812Z,128.57
2019-02-15T13:28:25.397Z,117.33
2019-02-15T13:30:54.014Z,114.70
2019-02-15T13:33:22.673Z,117.00
2019-02-15T13:35:51.145Z,123.50
2019-02-15T13:38:19.689Z,119.20
2019-02-15T13:40:48.192Z,108.90
2019-02-15T13:43:16.736Z,117.40
2019-02-15T13:45:45.281Z,114.93
2019-02-15T13:48:13.790Z,110.97
2019-02-15T13:50:42.409Z,107.57
2019-02-15T13:53:10.879Z,114.10
2019-02-15T13:55:39.466Z,109.93
2019-02-15T13:58:08.030Z,112.50
2019-02-15T14:00:36.502Z,103.00
2019-02-15T14:03:05.072Z,115.57
2019-02-15T14:05:33.615Z,112.97
2019-02-15T14:08:03.142Z,122.43
2019-02-15T14:10:31.797Z,116.30
2019-02-15T14:13:00.265Z,118.00
2019-02-15T14:15:28.805Z,119.90
2019-02-15T14:17:57.377Z,118.30
2019-02-15T14:20:25.917Z,117.90
2019-02-15T14:22:54.391Z,116.90
2019-02-15T14:25:22.961Z,108.67
2019-02-15T14:27:51.505Z,108.33
2019-02-15T14:30:21.009Z,109.53
2019-02-15T14:32:49.517Z,113.33
2019-02-15T14:35:18.058Z,112.80
2019-02-15T14:37:46.605Z,115.67
2019-02-15T14:40:15.321Z,103.50
2019-02-15T14:42:43.884Z,106.97
2019-02-15T14:45:13.153Z,118.30
2019-02-15T14:47:41.903Z,106.07
2019-02-15T14:50:11.173Z,114.03
2019-02-15T14:52:39.833Z,108.47
2019-02-15T14:55:10.439Z,119.27
2019-02-15T14:57:39.062Z,126.30
2019-02-15T15:00:12.752Z,128.30
2019-02-15T15:02:41.385Z,123.17
2019-02-15T15:05:12.467Z,121.07
2019-02-15T15:07:41.154Z,119.90
2019-02-15T15:10:10.501Z,125.47
2019-02-15T15:12:39.121Z,131.37
2019-02-15T15:15:12.559Z,131.03
2019-02-15T15:17:41.136Z,133.80
2019-02-15T15:20:11.523Z,124.07
2019-02-15T15:22:40.274Z,136.93
2019-02-15T15:25:13.074Z,125.83
2019-02-15T15:27:41.620Z,135.77
2019-02-15T15:30:17.665Z,128.83
2019-02-15T15:32:46.401Z,169.53
2019-02-15T15:35:15.088Z,146.13
2019-02-15T15:37:43.737Z,136.93
2019-02-15T15:40:13.926Z,140.87
2019-02-15T15:42:42.550Z,149.47
2019-02-15T15:45:12.276Z,140.47
2019-02-15T15:47:40.963Z,130.40
2019-02-15T15:50:11.255Z,147.00
2019-02-15T15:52:39.985Z,141.73
2019-02-15T15:55:13.386Z,139.50
2019-02-15T15:57:41.934Z,139.40
2019-02-15T16:00:13.329Z,151.70
2019-02-15T16:02:42.111Z,144.63
2019-02-15T16:05:11.206Z,152.10
2019-02-15T16:07:39.877Z,145.57
2019-02-15T16:10:15.173Z,144.87
2019-02-15T16:12:43.797Z,142.50
2019-02-15T16:15:13.346Z,160.47
2019-02-15T16:17:42.066Z,158.67
2019-02-15T16:20:12.646Z,150.77
2019-02-15T16:22:41.466Z,144.00
2019-02-15T16:25:11.460Z,139.17
2019-02-15T16:27:40.113Z,159.10
2019-02-15T16:30:13.765Z,162.53
2019-02-15T16:32:42.236Z,165.57
2019-02-15T16:35:10.875Z,152.30
2019-02-15T16:37:39.559Z,153.97
2019-02-15T16:40:13.818Z,155.70
2019-02-15T16:42:42.609Z,173.30
2019-02-15T16:45:17.273Z,163.87
2019-02-15T16:47:45.746Z,174.03
2019-02-15T16:50:14.476Z,176.70
2019-02-15T16:52:43.086Z,190.23
2019-02-15T16:55:13.180Z,177.83
2019-02-15T16:57:42.118Z,179.10
2019-02-15T17:00:12.678Z,160.33
2019-02-15T17:02:41.217Z,164.03
2019-02-15T17:05:09.959Z,141.53
2019-02-15T17:07:38.502Z,143.30
2019-02-15T17:10:09.760Z,144.53
2019-02-15T17:12:38.405Z,151.93
2019-02-15T17:15:11.653Z,165.13
2019-02-15T17:17:40.275Z,167.13
2019-02-15T17:20:09.993Z,164.57
2019-02-15T17:22:38.681Z,159.27
2019-02-15T17:25:09.569Z,164.87
2019-02-15T17:27:41.421Z,156.63
2019-02-15T17:30:11.766Z,161.60
2019-02-15T17:32:40.311Z,225.37
2019-02-15T17:35:12.786Z,277.60
2019-02-15T17:37:41.466Z,455.37
2019-02-15T17:40:12.250Z,491.77
2019-02-15T17:42:40.889Z,449.87
2019-02-15T17:45:11.019Z,608.07
2019-02-15T17:47:39.562Z,712.90
2019-02-15T17:50:11.921Z,641.40
2019-02-15T17:52:40.576Z,786.67
2019-02-15T17:55:10.186Z,699.47
2019-02-15T17:57:38.829Z,777.33
2019-02-15T18:00:12.389Z,660.77
2019-02-15T18:02:40.937Z,630.07
2019-02-15T18:05:12.129Z,869.13
2019-02-15T18:07:40.672Z,706.90
2019-02-15T18:10:09.291Z,745.43
2019-02-15T18:12:37.865Z,697.53
2019-02-15T18:15:06.779Z,426.13
2019-02-15T18:17:35.330Z,721.50
2019-02-15T18:20:04.834Z,855.60
2019-02-15T18:22:33.324Z,666.33
2019-02-15T18:25:01.857Z,693.00
2019-02-15T18:27:30.429Z,680.67
2019-02-15T18:29:58.907Z,649.13
2019-02-15T18:32:27.530Z,503.83
2019-02-15T18:34:56.187Z,818.07
2019-02-15T18:37:24.759Z,698.87
2019-02-15T18:39:53.361Z,581.30
2019-02-15T18:42:22.019Z,515.53
2019-02-15T18:44:50.569Z,733.70
2019-02-15T18:47:19.117Z,774.63
2019-02-15T18:49:47.762Z,591.10
2019-02-15T18:52:16.314Z,632.80
2019-02-15T18:54:44.798Z,664.43
2019-02-15T18:57:13.377Z,786.20
2019-02-15T18:59:42.061Z,554.47
2019-02-15T19:02:10.606Z,585.07
2019-02-15T19:04:39.239Z,488.57
2019-02-15T19:07:07.740Z,631.37
2019-02-15T19:09:36.288Z,627.40
2019-02-15T19:12:04.932Z,499.93
2019-02-15T19:14:33.489Z,446.03
2019-02-15T19:17:02.101Z,381.03
2019-02-15T19:19:30.746Z,499.40
2019-02-15T19:21:59.356Z,502.07
2019-02-15T19:24:27.986Z,611.30
2019-02-15T19:26:56.489Z,584.23
2019-02-15T19:29:25.043Z,392.47
2019-02-15T19:31:53.573Z,380.97
2019-02-15T19:34:22.077Z,522.37
2019-02-15T19:36:50.638Z,431.03
2019-02-15T19:39:19.282Z,530.60
2019-02-15T19:41:48.096Z,331.60
2019-02-15T19:44:16.706Z,391.10
2019-02-15T19:46:45.185Z,249.57
2019-02-15T19:49:13.748Z,359.73
2019-02-15T19:51:42.232Z,287.40
2019-02-15T19:54:10.774Z,384.97
2019-02-15T19:56:39.423Z,288.10
2019-02-15T19:59:08.042Z,349.63
2019-02-15T20:01:36.531Z,484.57
2019-02-15T20:04:05.268Z,403.77
2019-02-15T20:06:33.890Z,452.60
2019-02-15T20:09:02.563Z,461.67
2019-02-15T20:11:31.092Z,494.70
2019-02-15T20:14:00.172Z,479.10
2019-02-15T20:16:28.841Z,528.40
2019-02-15T20:18:57.498Z,426.03
2019-02-15T20:21:26.057Z,358.33
2019-02-15T20:23:54.609Z,366.00
2019-02-15T20:26:23.117Z,400.03
2019-02-15T20:28:51.821Z,317.70
2019-02-15T20:31:20.381Z,319.97
2019-02-15T20:33:48.962Z,285.13
2019-02-15T20:36:17.510Z,348.37
2019-02-15T20:38:46.072Z,232.63
2019-02-15T20:41:14.646Z,205.97
2019-02-15T20:43:43.188Z,211.90
2019-02-15T20:46:11.737Z,163.27
2019-02-15T20:48:40.248Z,140.63
2019-02-15T20:51:08.793Z,128.13
2019-02-15T20:53:37.342Z,238.60
2019-02-15T20:56:05.929Z,192.37
2019-02-15T20:58:34.552Z,225.73
2019-02-15T21:01:03.184Z,165.50
2019-02-15T21:03:31.818Z,177.70
2019-02-15T21:06:00.365Z,147.43
2019-02-15T21:08:28.987Z,123.23
2019-02-15T21:10:57.586Z,161.03
2019-02-15T21:13:26.130Z,156.50
2019-02-15T21:15:54.682Z,221.10
2019-02-15T21:18:23.589Z,192.40
2019-02-15T21:20:52.139Z,230.30
2019-02-15T21:23:20.782Z,234.57
2019-02-15T21:25:49.392Z,331.60
2019-02-15T21:28:17.966Z,457.73
2019-02-15T21:30:47.977Z,454.83
2019-02-15T21:33:17.072Z,288.87
2019-02-15T21:35:45.550Z,262.80
2019-02-15T21:38:14.088Z,272.50
2019-02-15T21:40:42.597Z,257.13
2019-02-15T21:43:11.225Z,321.03
2019-02-15T21:45:39.850Z,340.70
2019-02-15T21:48:08.423Z,277.03
2019-02-15T21:50:36.900Z,400.80
2019-02-15T21:53:05.600Z,347.00
2019-02-15T21:55:34.185Z,344.20
2019-02-15T21:58:02.744Z,397.13
2019-02-15T22:00:31.365Z,405.57
2019-02-15T22:02:59.949Z,373.83
2019-02-15T22:05:28.565Z,333.60
2019-02-15T22:07:57.116Z,390.97
2019-02-15T22:10:25.776Z,334.67
2019-02-15T22:12:54.335Z,315.90
2019-02-15T22:15:22.950Z,224.30
2019-02-15T22:17:51.549Z,233.77
2019-02-15T22:20:26.239Z,207.17
2019-02-15T22:22:50.313Z,214.83
2019-02-15T22:25:18.896Z,212.83
2019-02-15T22:27:47.382Z,250.33
2019-02-15T22:30:18.112Z,197.03
2019-02-15T22:32:47.543Z,202.10
2019-02-15T22:35:16.153Z,274.97
2019-02-15T22:37:44.696Z,180.00
2019-02-15T22:40:29.835Z,262.83
2019-02-15T22:43:10.140Z,245.57
2019-02-15T22:45:38.661Z,285.93
2019-02-15T22:48:07.205Z,185.07
2019-02-15T22:50:36.514Z,161.07
2019-02-15T22:53:05.145Z,170.83
2019-02-15T22:55:33.794Z,180.90
2019-02-15T22:58:04.463Z,205.67
2019-02-15T23:00:48.680Z,216.83
2019-02-15T23:03:19.141Z,179.63
2019-02-15T23:05:47.753Z,211.43
2019-02-15T23:08:16.464Z,206.03
2019-02-15T23:10:45.076Z,188.47
2019-02-15T23:13:13.563Z,200.33
2019-02-15T23:15:42.378Z,226.73
2019-02-15T23:18:10.994Z,206.60
2019-02-15T23:20:45.195Z,202.30
2019-02-15T23:23:09.768Z,196.97
2019-02-15T23:25:38.384Z,203.70
2019-02-15T23:28:07.001Z,181.57
2019-02-15T23:30:35.585Z,187.73
2019-02-15T23:33:05.681Z,190.97
2019-02-15T23:35:34.362Z,198.97
2019-02-15T23:38:03.017Z,199.83
2019-02-15T23:40:31.592Z,187.37
2019-02-15T23:43:00.141Z,175.73
2019-02-15T23:45:30.343Z,163.10
2019-02-15T23:47:58.888Z,176.77
2019-02-15T23:50:29.010Z,167.53
2019-02-15T23:52:57.585Z,167.17
2019-02-15T23:55:26.206Z,162.30
2019-02-15T23:57:54.761Z,155.13
